createdAt,value
2018-08-03T00:01:22.413Z,55.72
2018-08-03T00:04:29.314Z,55.39
2018-08-03T00:07:35.850Z,55.25
2018-08-03T00:10:42.588Z,55.62
2018-08-03T00:13:49.476Z,55.77
2018-08-03T00:16:56.257Z,56.13
2018-08-03T00:20:03.130Z,57.15
2018-08-03T00:23:10.003Z,58.76
2018-08-03T00:26:16.234Z,57.41
2018-08-03T00:29:22.830Z,58.14
2018-08-03T00:32:29.945Z,58.16
2018-08-03T00:35:36.751Z,58.11
2018-08-03T00:38:43.554Z,58.23
2018-08-03T00:41:50.376Z,58.18
2018-08-03T00:44:56.926Z,57.08
2018-08-03T00:48:03.392Z,57.32
2018-08-03T00:51:09.981Z,57.93
2018-08-03T00:54:17.268Z,59.22
2018-08-03T00:57:24.039Z,59.23
2018-08-03T01:00:30.841Z,58.65
2018-08-03T01:03:37.518Z,58.29
2018-08-03T01:06:43.996Z,58.27
2018-08-03T01:09:51.029Z,58.74
2018-08-03T01:12:57.872Z,59.22
2018-08-03T01:16:04.697Z,58.39
2018-08-03T01:19:13.655Z,58.94
2018-08-03T01:22:20.642Z,58.76
2018-08-03T01:25:27.411Z,58.82
2018-08-03T01:28:34.202Z,58.69
2018-08-03T01:31:40.766Z,59.56
2018-08-03T01:34:47.690Z,59.12
2018-08-03T01:37:54.494Z,59.15
2018-08-03T01:41:01.390Z,59.90
2018-08-03T01:44:08.235Z,60.52
2018-08-03T01:47:14.502Z,59.90
2018-08-03T01:50:21.085Z,60.17
2018-08-03T01:53:27.953Z,60.31
2018-08-03T01:56:34.507Z,60.89
2018-08-03T01:59:41.333Z,60.56
2018-08-03T02:02:48.075Z,59.87
2018-08-03T02:05:54.998Z,60.44
2018-08-03T02:09:01.810Z,61.32
2018-08-03T02:12:08.956Z,61.56
2018-08-03T02:15:16.130Z,61.02
2018-08-03T02:18:22.949Z,61.38
2018-08-03T02:21:29.859Z,61.32
2018-08-03T02:24:36.340Z,61.33
2018-08-03T02:27:42.912Z,61.71
2018-08-03T02:30:49.689Z,61.78
2018-08-03T02:33:56.264Z,61.33
2018-08-03T02:37:03.335Z,61.24
2018-08-03T02:40:10.272Z,61.25
2018-08-03T02:43:16.598Z,61.52
2018-08-03T02:46:23.301Z,61.55
2018-08-03T02:49:29.848Z,61.87
2018-08-03T02:52:36.662Z,61.42
2018-08-03T02:55:43.214Z,62.12
2018-08-03T02:58:49.759Z,61.58
2018-08-03T03:01:56.898Z,60.59
2018-08-03T03:05:03.686Z,60.57
2018-08-03T03:08:10.474Z,60.82
2018-08-03T03:11:17.285Z,61.10
2018-08-03T03:14:23.810Z,60.58
2018-08-03T03:17:30.600Z,60.52
2018-08-03T03:20:37.393Z,60.65
2018-08-03T03:23:44.249Z,60.85
2018-08-03T03:26:51.494Z,60.38
2018-08-03T03:29:58.273Z,60.76
2018-08-03T03:33:05.103Z,60.11
2018-08-03T03:36:11.649Z,60.56
2018-08-03T03:39:18.425Z,60.28
2018-08-03T03:42:25.256Z,60.49
2018-08-03T03:45:32.064Z,61.08
2018-08-03T03:48:38.843Z,60.92
2018-08-03T03:51:45.377Z,60.48
2018-08-03T03:54:52.315Z,60.58
2018-08-03T03:57:58.780Z,60.91
2018-08-03T04:01:05.676Z,61.17
2018-08-03T04:04:12.175Z,61.05
2018-08-03T04:07:18.725Z,60.71
2018-08-03T04:10:25.480Z,61.17
2018-08-03T04:13:32.430Z,61.14
2018-08-03T04:16:39.527Z,61.38
2018-08-03T04:19:46.694Z,60.91
2018-08-03T04:22:53.358Z,61.34
2018-08-03T04:26:00.078Z,60.88
2018-08-03T04:29:07.051Z,60.63
2018-08-03T04:32:13.912Z,60.60
2018-08-03T04:35:20.446Z,60.22
2018-08-03T04:38:27.149Z,60.44
2018-08-03T04:41:33.697Z,60.61
2018-08-03T04:44:40.460Z,60.12
2018-08-03T04:47:47.249Z,59.86
2018-08-03T04:50:54.042Z,59.76
2018-08-03T04:54:00.859Z,59.62
2018-08-03T04:57:07.402Z,60.34
2018-08-03T05:00:14.074Z,59.90
2018-08-03T05:03:20.899Z,59.38
2018-08-03T05:06:27.682Z,59.24
2018-08-03T05:09:34.485Z,59.37
2018-08-03T05:12:41.044Z,58.88
2018-08-03T05:15:47.971Z,58.80
2018-08-03T05:18:54.634Z,58.52
2018-08-03T05:22:01.515Z,58.10
2018-08-03T05:25:08.754Z,57.83
2018-08-03T05:28:15.535Z,57.53
2018-08-03T05:31:22.072Z,56.51
2018-08-03T05:34:28.898Z,55.96
2018-08-03T05:37:35.647Z,54.16
2018-08-03T05:40:42.432Z,53.86
2018-08-03T05:43:49.356Z,53.15
2018-08-03T05:46:56.174Z,52.27
2018-08-03T05:50:02.576Z,51.86
2018-08-03T05:53:09.275Z,51.11
2018-08-03T05:56:15.992Z,50.32
2018-08-03T05:59:22.789Z,49.53
2018-08-03T06:02:29.623Z,48.48
2018-08-03T06:05:36.414Z,47.72
2018-08-03T06:08:43.201Z,46.90
2018-08-03T06:11:50.075Z,46.43
2018-08-03T06:14:56.940Z,45.63
2018-08-03T06:18:03.465Z,45.43
2018-08-03T06:21:10.556Z,45.91
2018-08-03T06:24:17.361Z,45.98
2018-08-03T06:27:24.402Z,45.10
2018-08-03T06:30:30.789Z,44.49
2018-08-03T06:33:39.741Z,43.78
2018-08-03T06:36:46.275Z,43.46
2018-08-03T06:39:53.111Z,43.20
2018-08-03T06:43:00.055Z,42.86
2018-08-03T06:46:07.242Z,43.56
2018-08-03T06:49:14.033Z,45.01
2018-08-03T06:52:20.960Z,46.51
2018-08-03T06:55:27.826Z,47.09
2018-08-03T06:58:34.801Z,48.03
2018-08-03T07:01:41.457Z,48.63
2018-08-03T07:04:47.924Z,49.29
2018-08-03T07:07:54.340Z,48.91
2018-08-03T07:11:01.681Z,48.25
2018-08-03T07:14:08.806Z,48.42
2018-08-03T07:17:15.337Z,48.95
2018-08-03T07:20:21.999Z,48.73
2018-08-03T07:23:28.818Z,49.31
2018-08-03T07:26:35.071Z,49.22
2018-08-03T07:29:41.804Z,48.99
2018-08-03T07:32:48.458Z,48.48
2018-08-03T07:35:55.438Z,48.23
2018-08-03T07:39:02.483Z,47.39
2018-08-03T07:42:09.318Z,47.42
2018-08-03T07:45:16.260Z,47.65
2018-08-03T07:48:23.067Z,47.03
2018-08-03T07:51:29.752Z,46.91
2018-08-03T07:54:36.308Z,47.63
2018-08-03T07:57:43.574Z,47.89
2018-08-03T08:00:50.372Z,47.06
2018-08-03T08:03:56.966Z,46.60
2018-08-03T08:07:03.381Z,45.92
2018-08-03T08:10:10.181Z,46.14
2018-08-03T08:13:17.019Z,45.79
2018-08-03T08:16:23.822Z,46.19
2018-08-03T08:19:30.631Z,45.84
2018-08-03T08:22:37.426Z,46.16
2018-08-03T08:25:44.005Z,46.21
2018-08-03T08:28:51.129Z,45.83
2018-08-03T08:31:58.170Z,46.17
2018-08-03T08:35:05.307Z,45.36
2018-08-03T08:38:12.107Z,45.97
2018-08-03T08:41:18.910Z,45.62
2018-08-03T08:44:26.130Z,44.37
2018-08-03T08:47:32.664Z,44.14
2018-08-03T08:50:38.831Z,44.17
2018-08-03T08:53:45.610Z,43.29
2018-08-03T08:56:52.818Z,43.11
2018-08-03T08:59:59.611Z,43.43
2018-08-03T09:03:06.210Z,43.30
2018-08-03T09:06:13.385Z,43.39
2018-08-03T09:09:20.503Z,43.22
2018-08-03T09:12:27.321Z,42.55
2018-08-03T09:15:34.199Z,42.39
2018-08-03T09:18:40.633Z,42.19
2018-08-03T09:21:47.534Z,42.22
2018-08-03T09:24:54.339Z,43.11
2018-08-03T09:28:01.123Z,42.60
2018-08-03T09:31:07.960Z,42.97
2018-08-03T09:34:14.193Z,41.45
2018-08-03T09:37:20.946Z,41.43
2018-08-03T09:40:27.117Z,41.59
2018-08-03T09:43:33.588Z,41.72
2018-08-03T09:46:40.569Z,41.92
2018-08-03T09:49:47.354Z,42.07
2018-08-03T09:52:53.828Z,40.52
2018-08-03T09:56:00.307Z,40.99
2018-08-03T09:59:06.759Z,41.10
2018-08-03T10:02:13.255Z,40.69
2018-08-03T10:05:19.714Z,40.05
2018-08-03T10:08:26.184Z,39.77
2018-08-03T10:11:32.688Z,39.86
2018-08-03T10:14:39.423Z,39.92
2018-08-03T10:17:46.542Z,39.69
2018-08-03T10:20:53.446Z,39.99
2018-08-03T10:24:00.930Z,38.78
2018-08-03T10:27:07.759Z,37.57
2018-08-03T10:30:14.647Z,37.61
2018-08-03T10:33:20.802Z,37.14
2018-08-03T10:36:27.876Z,36.49
2018-08-03T10:39:34.718Z,35.88
2018-08-03T10:42:41.927Z,35.98
2018-08-03T10:45:48.500Z,36.47
2018-08-03T10:48:55.202Z,35.60
2018-08-03T10:52:02.157Z,35.74
2018-08-03T10:55:08.974Z,36.05
2018-08-03T10:58:16.177Z,35.41
2018-08-03T11:01:23.035Z,35.80
2018-08-03T11:04:29.918Z,36.10
2018-08-03T11:07:37.139Z,36.01
2018-08-03T11:10:44.265Z,35.09
2018-08-03T11:13:51.133Z,36.11
2018-08-03T11:16:58.237Z,35.43
2018-08-03T11:20:05.700Z,35.41
2018-08-03T11:23:12.506Z,34.59
2018-08-03T11:26:19.459Z,34.25
2018-08-03T11:29:26.246Z,35.01
2018-08-03T11:32:32.722Z,34.72
2018-08-03T11:35:39.479Z,34.58
2018-08-03T11:38:46.684Z,33.56
2018-08-03T11:41:53.606Z,33.94
2018-08-03T11:45:00.546Z,34.30
2018-08-03T11:48:07.034Z,34.50
2018-08-03T11:51:13.853Z,33.83
2018-08-03T11:54:20.464Z,33.24
2018-08-03T11:57:27.288Z,32.77
2018-08-03T12:00:33.836Z,33.36
2018-08-03T12:03:40.302Z,33.16
2018-08-03T12:06:47.420Z,33.01
2018-08-03T12:09:54.557Z,31.21
2018-08-03T12:13:01.521Z,31.76
2018-08-03T12:16:08.759Z,31.30
2018-08-03T12:19:15.672Z,30.39
2018-08-03T12:22:22.411Z,30.13
2018-08-03T12:25:29.231Z,30.26
2018-08-03T12:28:36.337Z,30.78
2018-08-03T12:31:42.694Z,30.32
2018-08-03T12:34:49.214Z,30.52
2018-08-03T12:37:55.685Z,30.43
2018-08-03T12:41:02.154Z,30.10
2018-08-03T12:44:08.983Z,28.97
2018-08-03T12:47:15.605Z,26.94
2018-08-03T12:50:22.430Z,26.34
2018-08-03T12:53:29.420Z,24.83
2018-08-03T12:56:36.212Z,24.19
2018-08-03T12:59:42.530Z,23.84
2018-08-03T13:02:49.576Z,23.17
2018-08-03T13:05:56.765Z,24.28
2018-08-03T13:09:03.670Z,24.81
2018-08-03T13:12:10.686Z,25.00
2018-08-03T13:15:17.685Z,23.47
2018-08-03T13:18:24.174Z,23.25
2018-08-03T13:21:35.434Z,24.37
2018-08-03T13:24:42.591Z,24.68
2018-08-03T13:27:49.865Z,25.37
2018-08-03T13:30:57.168Z,26.32
2018-08-03T13:34:04.363Z,26.59
2018-08-03T13:37:11.470Z,25.94
2018-08-03T13:40:17.931Z,26.04
2018-08-03T13:43:25.130Z,27.02
2018-08-03T13:46:32.323Z,27.82
2018-08-03T13:49:38.687Z,29.32
2018-08-03T13:52:45.875Z,28.99
2018-08-03T13:55:53.280Z,29.85
2018-08-03T13:59:00.119Z,28.93
2018-08-03T14:02:18.395Z,29.87
2018-08-03T14:05:25.575Z,29.85
2018-08-03T14:08:32.392Z,30.01
2018-08-03T14:11:39.316Z,29.76
2018-08-03T14:14:46.042Z,30.36
2018-08-03T14:17:52.847Z,30.03
2018-08-03T14:20:59.075Z,30.39
2018-08-03T14:24:05.907Z,29.85
2018-08-03T14:27:12.622Z,30.38
2018-08-03T14:30:19.436Z,30.93
2018-08-03T14:33:26.004Z,30.58
2018-08-03T14:36:32.810Z,30.24
2018-08-03T14:39:39.049Z,30.45
2018-08-03T14:42:46.227Z,31.14
2018-08-03T14:45:53.060Z,31.13
2018-08-03T14:48:59.661Z,30.47
2018-08-03T14:52:06.760Z,30.69
2018-08-03T14:55:13.591Z,32.03
2018-08-03T14:58:20.717Z,32.73
2018-08-03T15:01:27.624Z,32.86
2018-08-03T15:04:34.433Z,33.79
2018-08-03T15:07:41.220Z,33.72
2018-08-03T15:11:07.697Z,32.88
2018-08-03T15:14:14.527Z,33.94
2018-08-03T15:17:21.310Z,34.25
2018-08-03T15:20:28.471Z,34.57
2018-08-03T15:23:35.404Z,33.96
2018-08-03T15:26:42.026Z,34.30
2018-08-03T15:29:48.750Z,35.10
2018-08-03T15:32:55.926Z,36.47
2018-08-03T15:36:02.505Z,36.79
2018-08-03T15:39:11.091Z,36.83
2018-08-03T15:42:18.234Z,36.96
2018-08-03T15:45:25.062Z,36.96
2018-08-03T15:48:31.968Z,36.78
2018-08-03T15:51:39.189Z,36.82
2018-08-03T15:54:46.383Z,36.90
2018-08-03T15:57:52.887Z,37.37
2018-08-03T16:00:59.735Z,37.15
2018-08-03T16:04:06.637Z,37.53
2018-08-03T16:07:13.128Z,37.78
2018-08-03T16:10:19.965Z,37.87
2018-08-03T16:13:26.816Z,37.71
2018-08-03T16:16:33.982Z,37.49
2018-08-03T16:19:40.490Z,37.86
2018-08-03T16:22:47.045Z,38.12
2018-08-03T16:25:54.223Z,38.67
2018-08-03T16:29:01.064Z,37.85
2018-08-03T16:32:08.045Z,37.65
2018-08-03T16:35:14.784Z,38.17
2018-08-03T16:38:21.340Z,38.39
2018-08-03T16:41:28.438Z,38.24
2018-08-03T16:44:34.710Z,38.47
2018-08-03T16:47:41.806Z,38.61
2018-08-03T16:50:48.378Z,38.33
2018-08-03T16:53:54.737Z,38.34
2018-08-03T16:57:01.601Z,38.31
2018-08-03T17:00:08.754Z,38.65
2018-08-03T17:03:15.669Z,38.85
2018-08-03T17:06:21.948Z,38.27
2018-08-03T17:09:28.859Z,37.81
2018-08-03T17:12:36.601Z,37.99
2018-08-03T17:15:44.364Z,37.44
2018-08-03T17:18:51.074Z,37.75
2018-08-03T17:21:58.016Z,37.72
2018-08-03T17:25:05.430Z,37.70
2018-08-03T17:28:12.301Z,37.80
2018-08-03T17:31:19.036Z,37.19
2018-08-03T17:34:25.628Z,37.35
2018-08-03T17:37:32.095Z,37.38
2018-08-03T17:40:38.885Z,37.41
2018-08-03T17:43:45.474Z,37.83
2018-08-03T17:46:52.048Z,37.66
2018-08-03T17:49:58.183Z,37.79
2018-08-03T17:53:04.670Z,37.85
2018-08-03T17:56:11.282Z,38.31
2018-08-03T17:59:17.804Z,38.11
2018-08-03T18:02:24.288Z,38.21
2018-08-03T18:05:30.851Z,38.33
2018-08-03T18:08:37.720Z,38.35
2018-08-03T18:11:44.340Z,38.31
2018-08-03T18:14:50.875Z,37.21
2018-08-03T18:17:58.008Z,37.40
2018-08-03T18:21:04.514Z,37.37
2018-08-03T18:24:11.478Z,36.80
2018-08-03T18:27:18.730Z,37.08
2018-08-03T18:30:25.591Z,36.95
2018-08-03T18:33:32.775Z,37.36
2018-08-03T18:36:39.579Z,37.43
2018-08-03T18:39:46.383Z,37.32
2018-08-03T18:42:53.582Z,37.15
2018-08-03T18:46:00.483Z,36.97
2018-08-03T18:49:07.243Z,37.03
2018-08-03T18:52:13.949Z,37.29
2018-08-03T18:55:20.935Z,37.17
2018-08-03T18:58:28.196Z,37.59
2018-08-03T19:01:34.749Z,37.93
2018-08-03T19:04:41.792Z,38.36
2018-08-03T19:07:48.698Z,38.67
2018-08-03T19:10:55.206Z,38.41
2018-08-03T19:14:01.999Z,38.68
2018-08-03T19:17:08.857Z,38.81
2018-08-03T19:20:15.635Z,38.83
2018-08-03T19:23:22.321Z,38.70
2018-08-03T19:26:29.354Z,38.75
2018-08-03T19:29:36.163Z,38.62
2018-08-03T19:32:43.090Z,38.37
2018-08-03T19:35:50.410Z,38.17
2018-08-03T19:38:57.217Z,38.22
2018-08-03T19:42:04.164Z,38.37
2018-08-03T19:45:11.008Z,38.22
2018-08-03T19:48:17.762Z,38.54
2018-08-03T19:51:24.584Z,38.73
2018-08-03T19:54:31.123Z,39.66
2018-08-03T19:57:38.320Z,39.67
2018-08-03T20:00:44.871Z,40.06
2018-08-03T20:03:52.146Z,40.77
2018-08-03T20:06:58.756Z,41.16
2018-08-03T20:10:06.710Z,41.74
2018-08-03T20:13:13.673Z,42.75
2018-08-03T20:16:20.492Z,43.02
2018-08-03T20:19:27.102Z,43.06
2018-08-03T20:22:33.290Z,43.29
2018-08-03T20:25:40.088Z,44.03
2018-08-03T20:28:46.994Z,44.48
2018-08-03T20:31:53.970Z,44.93
2018-08-03T20:35:00.779Z,45.23
2018-08-03T20:38:07.863Z,45.08
2018-08-03T20:41:14.678Z,45.22
2018-08-03T20:44:21.366Z,45.97
2018-08-03T20:47:28.094Z,45.65
2018-08-03T20:50:34.995Z,45.76
2018-08-03T20:53:41.976Z,46.17
2018-08-03T20:56:48.472Z,46.40
2018-08-03T20:59:55.282Z,46.31
2018-08-03T21:03:01.840Z,46.57
2018-08-03T21:06:08.627Z,46.77
2018-08-03T21:09:15.450Z,46.90
2018-08-03T21:12:22.403Z,47.42
2018-08-03T21:15:29.195Z,47.26
2018-08-03T21:18:36.067Z,47.73
2018-08-03T21:21:42.914Z,48.11
2018-08-03T21:24:52.655Z,48.73
2018-08-03T21:27:59.239Z,48.93
2018-08-03T21:31:06.361Z,49.84
2018-08-03T21:34:13.177Z,50.08
2018-08-03T21:37:20.020Z,50.19
2018-08-03T21:40:26.766Z,50.63
2018-08-03T21:43:34.075Z,50.96
2018-08-03T21:46:40.875Z,51.50
2018-08-03T21:49:47.745Z,51.68
2018-08-03T21:52:54.637Z,52.37
2018-08-03T21:56:01.431Z,52.69
2018-08-03T21:59:07.935Z,53.05
2018-08-03T22:02:14.838Z,53.15
2018-08-03T22:05:21.406Z,53.40
2018-08-03T22:08:28.198Z,53.49
2018-08-03T22:11:34.612Z,53.87
2018-08-03T22:14:41.409Z,54.29
2018-08-03T22:17:48.230Z,54.47
2018-08-03T22:20:55.023Z,54.55
2018-08-03T22:24:01.888Z,54.86
2018-08-03T22:27:08.414Z,54.54
2018-08-03T22:30:15.141Z,55.15
2018-08-03T22:33:22.039Z,55.18
2018-08-03T22:36:28.837Z,55.81
2018-08-03T22:39:35.715Z,55.83
2018-08-03T22:42:42.857Z,56.50
2018-08-03T22:45:51.172Z,56.88
2018-08-03T22:48:58.024Z,57.05
2018-08-03T22:52:05.018Z,57.22
2018-08-03T22:55:11.799Z,57.35
2018-08-03T22:58:18.621Z,57.54
2018-08-03T23:01:25.396Z,57.52
2018-08-03T23:04:32.215Z,58.25
2018-08-03T23:07:39.001Z,58.53
2018-08-03T23:10:45.818Z,58.46
2018-08-03T23:13:52.528Z,58.63
2018-08-03T23:16:59.243Z,58.29
2018-08-03T23:20:06.958Z,58.33
2018-08-03T23:23:13.889Z,58.58
2018-08-03T23:26:20.698Z,58.78
2018-08-03T23:29:27.710Z,58.82
2018-08-03T23:32:34.941Z,58.75
2018-08-03T23:35:41.714Z,58.83
2018-08-03T23:38:48.540Z,58.94
2018-08-03T23:41:55.362Z,59.55
2018-08-03T23:45:01.937Z,59.87
2018-08-03T23:48:08.657Z,60.33
2018-08-03T23:51:15.525Z,60.87
2018-08-03T23:54:22.409Z,60.76
2018-08-03T23:57:29.273Z,60.60
